Time;durP1;ratioP1;P1;durP2;ratioP2;P2;SDS_P1;SDS_P2;PMS_P1;PMS_P2;Temp;Humidity;BMP_temperature;BMP_pressure;BME280_temperature;BME280_humidity;BME280_pressure;Samples;Min_cycle;Max_cycle;Signal;HPM_P1;HPM_P2
2022/11/11 00:02:09;;;;;;;5.50;5.10;;;9.80;56.70;;;;;;20915;6736;117377;-86
2022/11/11 00:04:45;;;;;;;4.40;4.10;;;9.80;56.90;;;;;;20711;6729;282005;-86
2022/11/11 00:07:21;;;;;;;3.83;3.60;;;9.80;55.80;;;;;;20939;6727;116462;-87
2022/11/11 00:09:57;;;;;;;8.90;3.95;;;9.70;56.10;;;;;;20675;6732;339727;-86
2022/11/11 00:12:33;;;;;;;119.53;6.43;;;9.70;54.70;;;;;;20986;6729;117155;-86
2022/11/11 00:15:10;;;;;;;149.65;7.93;;;9.60;55.10;;;;;;20698;6736;336100;-88
2022/11/11 00:26:41;;;;;;;174.87;8.00;;;10.20;52.70;;;;;;20745;6717;305921;-86
2022/11/11 00:29:07;;;;;;;282.13;9.87;;;10.30;52.40;;;;;;20688;6736;306718;-87
2022/11/11 00:35:51;;;;;;;748.13;20.00;;;10.00;52.60;;;;;;20676;6736;306740;-86
2022/11/11 00:37:15;;;;;;;620.67;20.77;;;9.90;53.90;;;;;;20894;6787;117270;-88
2022/11/11 00:39:51;;;;;;;845.30;22.95;;;9.60;54.40;;;;;;20731;6716;310126;-86
2022/11/11 00:42:29;;;;;;;972.67;25.27;;;9.60;54.50;;;;;;20694;6731;277387;-88
2022/11/11 00:45:05;;;;;;;419.95;15.40;;;9.80;53.90;;;;;;20725;6729;278885;-87
2022/11/11 00:53:35;;;;;;;258.25;10.80;;;10.10;53.10;;;;;;20705;6733;305587;-88
2022/11/11 00:56:07;;;;;;;307.13;11.97;;;10.20;52.40;;;;;;20968;6718;117388;-86
2022/11/11 00:58:43;;;;;;;337.00;11.67;;;9.90;54.10;;;;;;20903;6732;118002;-86
2022/11/11 01:01:18;;;;;;;584.93;16.27;;;9.50;55.20;;;;;;20764;6725;122666;-88
2022/11/11 01:03:54;;;;;;;289.93;10.60;;;9.10;56.70;;;;;;20923;6733;117439;-86
2022/11/11 01:06:29;;;;;;;404.40;11.87;;;8.80;56.60;;;;;;20983;6707;141686;-86
2022/11/11 01:09:08;;;;;;;471.80;13.65;;;8.60;57.20;;;;;;20784;6707;306279;-89
2022/11/11 01:11:50;;;;;;;282.13;11.20;;;8.80;56.50;;;;;;20795;6717;118563;-85
2022/11/11 01:14:16;;;;;;;415.80;12.37;;;8.80;56.50;;;;;;20908;6731;118835;-86
2022/11/11 01:16:52;;;;;;;322.27;12.10;;;8.60;57.20;;;;;;20765;6714;276483;-89
2022/11/11 01:19:27;;;;;;;565.87;15.20;;;8.70;56.60;;;;;;20950;6719;117753;-88
2022/11/11 01:22:03;;;;;;;500.03;14.37;;;8.70;56.80;;;;;;20985;6712;120727;-86
2022/11/11 01:24:38;;;;;;;235.17;10.80;;;8.50;57.40;;;;;;20770;6712;305426;-88
2022/11/11 01:27:15;;;;;;;439.85;13.77;;;8.70;57.30;;;;;;20772;6711;305930;-87
2022/11/11 01:29:51;;;;;;;497.23;15.00;;;9.10;57.30;;;;;;20727;6714;308260;-89
2022/11/11 01:32:26;;;;;;;529.53;16.10;;;9.40;56.40;;;;;;20722;6713;309745;-89
2022/11/11 01:35:12;;;;;;;;;;;;;;;;;;;;;
2022/11/11 01:37:37;;;;;;;559.87;17.23;;;9.40;55.60;;;;;;20697;6727;315623;-88
2022/11/11 01:40:13;;;;;;;532.75;16.92;;;9.30;55.30;;;;;;20719;6726;307092;-86
2022/11/11 01:42:55;;;;;;;388.33;14.38;;;9.50;55.20;;;;;;20773;6711;305091;-87
2022/11/11 01:45:47;;;;;;;271.93;12.57;;;9.60;55.00;;;;;;20979;6711;117794;-85
2022/11/11 01:52:08;;;;;;;675.67;21.27;;;9.30;55.80;;;;;;20826;6712;118158;-88
2022/11/11 01:55:05;;;;;;;861.33;23.40;;;9.00;56.30;;;;;;20325;6789;118005;-85
2022/11/11 01:57:53;;;;;;;787.70;23.63;;;8.70;57.50;;;;;;20992;6722;67998;-86
2022/11/11 02:00:29;;;;;;;784.83;23.43;;;8.40;58.30;;;;;;20811;6746;117632;-85
2022/11/11 02:03:04;;;;;;;437.40;16.50;;;8.20;58.90;;;;;;20995;6723;116743;-86
2022/11/11 02:05:44;;;;;;;321.75;15.10;;;8.10;59.50;;;;;;20782;6723;336364;-90
2022/11/11 02:08:31;;;;;;;460.33;15.45;;;8.40;59.00;;;;;;20688;6738;306719;-86
2022/11/11 02:10:54;;;;;;;397.83;14.23;;;8.80;58.20;;;;;;20633;6781;278372;-86
2022/11/11 02:16:26;;;;;;;225.53;11.20;;;9.40;56.10;;;;;;20903;6738;117944;-87
2022/11/11 02:19:02;;;;;;;290.93;11.93;;;9.10;56.50;;;;;;20935;6740;117869;-91
2022/11/11 02:21:38;;;;;;;354.33;12.57;;;8.80;57.40;;;;;;20898;6726;120555;-92
2022/11/11 02:24:18;;;;;;;204.47;9.47;;;8.50;58.20;;;;;;20848;6723;305635;-89
2022/11/11 02:26:51;;;;;;;152.83;7.70;;;8.70;57.40;;;;;;21037;6731;116915;-91
2022/11/11 02:29:26;;;;;;;173.95;7.57;;;8.60;57.40;;;;;;20793;6708;305247;-88
2022/11/11 02:32:02;;;;;;;67.95;5.62;;;8.80;56.10;;;;;;20829;6706;305516;-87
2022/11/11 02:34:37;;;;;;;24.80;4.23;;;9.00;54.90;;;;;;20986;6717;119021;-85
2022/11/11 02:37:13;;;;;;;3.30;3.20;;;8.90;55.20;;;;;;21002;6716;116981;-86
2022/11/11 02:39:48;;;;;;;17.63;3.73;;;8.50;56.20;;;;;;20881;6731;117462;-88
2022/11/11 02:42:24;;;;;;;57.53;4.50;;;8.30;57.20;;;;;;20920;6727;117714;-86
2022/11/11 02:45:00;;;;;;;39.93;4.43;;;8.10;57.70;;;;;;20724;6729;306147;-86
2022/11/11 02:47:35;;;;;;;114.68;7.00;;;8.20;56.20;;;;;;20665;6800;307115;-90
2022/11/11 02:50:12;;;;;;;179.20;9.55;;;8.60;55.40;;;;;;20636;6743;315584;-86
2022/11/11 02:52:48;;;;;;;159.95;8.32;;;8.80;54.70;;;;;;20687;6742;305677;-91
2022/11/11 02:55:23;;;;;;;237.10;10.97;;;9.00;54.50;;;;;;20911;6731;117569;-86
2022/11/11 02:57:59;;;;;;;255.20;12.40;;;8.80;55.10;;;;;;20915;6735;117918;-89
2022/11/11 03:00:34;;;;;;;106.97;7.97;;;8.50;56.30;;;;;;20831;6735;117657;-87
2022/11/11 03:03:10;;;;;;;399.12;14.80;;;8.20;57.20;;;;;;20680;6745;336594;-90
2022/11/11 03:05:55;;;;;;;562.63;19.07;;;8.40;57.20;;;;;;20876;6746;117435;-87
2022/11/11 03:08:21;;;;;;;432.60;16.23;;;8.40;57.10;;;;;;20707;6731;310164;-87
2022/11/11 03:10:57;;;;;;;465.23;16.73;;;8.60;57.00;;;;;;20825;6723;118010;-87
2022/11/11 03:13:41;;;;;;;357.90;14.63;;;8.60;56.90;;;;;;20755;6717;336241;-89
2022/11/11 03:17:38;;;;;;;289.47;10.83;;;8.70;56.50;;;;;;20979;6717;116386;-87
2022/11/11 03:18:43;;;;;;;312.63;13.50;;;8.60;56.70;;;;;;20894;6781;117356;-86
2022/11/11 03:21:19;;;;;;;611.93;18.23;;;8.30;57.40;;;;;;20834;6716;117983;-87
2022/11/11 03:23:55;;;;;;;377.23;17.07;;;8.10;58.20;;;;;;20746;6719;331537;-86
2022/11/11 03:26:30;;;;;;;575.53;20.13;;;8.30;57.90;;;;;;20716;6724;343017;-87
2022/11/11 03:29:15;;;;;;;703.47;23.77;;;8.70;56.80;;;;;;20616;6738;338416;-86
2022/11/11 03:31:41;;;;;;;954.07;29.43;;;9.00;55.80;;;;;;20750;6731;117833;-88
2022/11/11 03:34:20;;;;;;;870.27;27.77;;;8.90;56.00;;;;;;20860;6731;118412;-87
2022/11/11 03:39:51;;;;;;;682.93;22.77;;;8.60;57.10;;;;;;20876;6736;117885;-87
2022/11/11 03:42:26;;;;;;;861.00;30.98;;;8.50;57.50;;;;;;20674;6745;307076;-89
2022/11/11 03:45:03;;;;;;;398.33;14.93;;;8.60;56.80;;;;;;20940;6730;116614;-88
2022/11/11 03:47:39;;;;;;;523.70;20.25;;;8.50;57.00;;;;;;20728;6716;306917;-86
2022/11/11 03:50:14;;;;;;;626.90;22.63;;;8.60;56.70;;;;;;20920;6708;121811;-89
2022/11/11 03:52:50;;;;;;;410.13;18.13;;;8.60;57.00;;;;;;20751;6714;277259;-87
2022/11/11 03:55:27;;;;;;;189.40;11.98;;;8.70;56.80;;;;;;20799;6700;305837;-90
2022/11/11 03:58:04;;;;;;;816.43;32.37;;;9.00;56.20;;;;;;20963;6715;118400;-90
2022/11/11 04:00:39;;;;;;;379.37;12.67;;;8.90;56.40;;;;;;20839;6729;118986;-86
2022/11/11 04:12:01;;;;;;;72.30;7.13;;;7.90;59.00;;;;;;20788;6616;313274;-88
2022/11/11 04:17:32;;;;;;;5.70;5.10;;;8.50;56.50;;;;;;20688;6739;306536;-86
2022/11/11 04:23:04;;;;;;;4.13;3.93;;;8.60;55.80;;;;;;20950;6724;116766;-90
2022/11/11 04:25:49;;;;;;;4.37;4.07;;;8.30;57.00;;;;;;20914;6739;117383;-86
2022/11/11 04:31:22;;;;;;;4.77;4.13;;;7.80;58.50;;;;;;20558;6722;280689;-89
2022/11/11 04:33:59;;;;;;;4.17;3.87;;;8.10;56.80;;;;;;20713;6731;303714;-87
2022/11/11 04:36:35;;;;;;;9.73;3.67;;;8.50;55.60;;;;;;20915;6731;117227;-94
2022/11/11 04:42:08;;;;;;;236.87;8.73;;;8.50;55.10;;;;;;20910;6745;67698;-90
2022/11/11 04:47:39;;;;;;;301.83;10.93;;;8.40;54.70;;;;;;21102;6595;118070;-91
2022/11/11 04:50:24;;;;;;;;;;;;;;;;;;;;;
2022/11/11 04:52:50;;;;;;;433.97;15.83;;;8.00;56.10;;;;;;20760;6719;329410;-91
2022/11/11 04:58:22;;;;;;;477.10;16.47;;;8.40;55.20;;;;;;21018;6714;120512;-89
2022/11/11 05:00:58;;;;;;;559.97;21.77;;;8.30;55.60;;;;;;20582;6713;313456;-90
2022/11/11 05:03:44;;;;;;;;;;;;;;;;;;;;;
2022/11/11 05:09:05;;;;;;;422.85;16.40;;;8.30;55.60;;;;;;20797;6706;307135;-88
2022/11/11 05:11:40;;;;;;;728.77;27.67;;;8.60;55.00;;;;;;20782;6706;117826;-89
2022/11/11 05:23:03;;;;;;;425.63;17.57;;;8.00;56.90;;;;;;20956;6734;118518;-87
2022/11/11 05:25:51;;;;;;;281.60;13.20;;;7.70;57.60;;;;;;20783;6717;334753;-88
2022/11/11 05:28:17;;;;;;;284.17;11.23;;;7.90;56.80;;;;;;21015;6721;118097;-95
2022/11/11 05:31:13;;;;;;;185.00;9.43;;;7.80;56.60;;;;;;20422;6964;75707;-92
2022/11/11 05:33:48;;;;;;;258.37;10.23;;;7.60;57.30;;;;;;20525;6721;69871;-90
2022/11/11 05:36:35;;;;;;;;;;;;;;;;;;;;;
2022/11/11 05:39:01;;;;;;;156.87;7.50;;;7.30;58.70;;;;;;21005;6717;117139;-89
2022/11/11 05:41:36;;;;;;;111.80;7.57;;;7.10;59.10;;;;;;20622;6765;289464;-89
2022/11/11 05:44:12;;;;;;;194.33;8.50;;;7.40;57.70;;;;;;20966;6729;116672;-89
2022/11/11 05:46:47;;;;;;;159.17;8.03;;;7.50;57.50;;;;;;20957;6729;116298;-85
2022/11/11 05:49:30;;;;;;;29.45;4.82;;;7.30;57.90;;;;;;20727;6732;277484;-90
2022/11/11 05:52:00;;;;;;;115.57;6.47;;;7.50;57.70;;;;;;20969;6714;117084;-88
2022/11/11 05:54:39;;;;;;;108.10;6.27;;;7.60;57.60;;;;;;20854;6747;117559;-87
2022/11/11 05:57:14;;;;;;;216.90;9.67;;;7.40;57.90;;;;;;20907;6737;117340;-89
2022/11/11 05:59:49;;;;;;;168.00;8.10;;;7.30;58.40;;;;;;20886;6736;117386;-86
2022/11/11 06:02:25;;;;;;;244.63;10.10;;;7.10;58.70;;;;;;20966;6716;117206;-88
2022/11/11 06:05:12;;;;;;;;;;;;;;;;;;;;;
2022/11/11 06:07:40;;;;;;;303.67;12.97;;;7.30;57.60;;;;;;20644;6719;305056;-87
2022/11/11 06:10:29;;;;;;;656.05;22.27;;;7.70;56.80;;;;;;20603;6774;307954;-86
2022/11/11 06:13:14;;;;;;;404.23;15.53;;;8.00;55.70;;;;;;20883;6790;117317;-90
2022/11/11 06:15:43;;;;;;;574.67;20.47;;;7.90;56.00;;;;;;20926;6742;113974;-87
2022/11/11 06:18:20;;;;;;;600.47;21.90;;;7.60;56.30;;;;;;20768;6772;320218;-87
2022/11/11 06:21:05;;;;;;;;;;;;;;;;;;;;;
2022/11/11 06:23:31;;;;;;;408.62;17.60;;;7.60;56.50;;;;;;20671;6717;336100;-88
2022/11/11 06:26:15;;;;;;;732.97;22.10;;;7.70;56.60;;;;;;20875;6732;67666;-87
2022/11/11 06:28:53;;;;;;;268.30;10.97;;;7.70;56.90;;;;;;20885;6744;118310;-88
2022/11/11 06:31:29;;;;;;;380.00;17.60;;;7.50;57.60;;;;;;20581;6729;308871;-88
2022/11/11 06:34:04;;;;;;;651.27;21.30;;;7.70;56.80;;;;;;20947;6744;117058;-89
2022/11/11 06:36:40;;;;;;;262.07;12.00;;;7.60;56.80;;;;;;20814;6801;127650;-88
2022/11/11 06:39:26;;;;;;;237.43;11.45;;;7.50;57.50;;;;;;20708;6744;336104;-88
2022/11/11 06:42:03;;;;;;;227.23;11.00;;;7.60;57.10;;;;;;20599;6773;313846;-88
2022/11/11 06:44:29;;;;;;;242.00;11.23;;;8.00;55.90;;;;;;20705;6729;339136;-88
2022/11/11 06:47:06;;;;;;;236.60;9.70;;;8.30;54.60;;;;;;20934;6729;117295;-89
2022/11/11 06:49:42;;;;;;;61.17;5.97;;;8.10;54.80;;;;;;20738;6725;277772;-88
2022/11/11 06:52:18;;;;;;;72.17;6.47;;;8.10;54.50;;;;;;20987;6710;117461;-89
2022/11/11 06:54:55;;;;;;;89.53;6.30;;;8.00;55.00;;;;;;20976;6714;117188;-87
2022/11/11 06:57:30;;;;;;;46.33;5.37;;;7.80;55.80;;;;;;20808;6699;305967;-89
2022/11/11 07:00:07;;;;;;;15.90;4.20;;;7.90;55.20;;;;;;20890;6722;118078;-86
2022/11/11 07:02:47;;;;;;;9.87;4.10;;;7.80;55.50;;;;;;20981;6707;117010;-87
2022/11/11 07:05:25;;;;;;;7.80;3.73;;;7.70;56.30;;;;;;20987;6723;116827;-87
2022/11/11 07:08:04;;;;;;;3.50;3.30;;;7.50;56.90;;;;;;20771;6722;306137;-90
2022/11/11 07:10:40;;;;;;;3.53;3.43;;;7.80;56.20;;;;;;20639;6723;278287;-90
2022/11/11 07:13:16;;;;;;;6.07;3.37;;;8.30;54.70;;;;;;20968;6721;119685;-89
2022/11/11 07:15:52;;;;;;;20.43;4.03;;;8.20;54.50;;;;;;20959;6721;117796;-92
2022/11/11 07:21:14;;;;;;;43.40;5.00;;;8.10;54.20;;;;;;20243;6702;335880;-89
2022/11/11 07:23:40;;;;;;;102.13;6.57;;;8.40;53.80;;;;;;21090;6701;116280;-89
2022/11/11 07:26:16;;;;;;;59.37;5.53;;;8.30;54.00;;;;;;21012;6716;117912;-88
2022/11/11 07:28:53;;;;;;;76.87;5.77;;;8.00;54.70;;;;;;20939;6724;117241;-89
2022/11/11 07:31:29;;;;;;;45.23;4.70;;;7.70;55.50;;;;;;20585;6730;307776;-88
2022/11/11 07:34:04;;;;;;;194.60;9.43;;;7.90;55.20;;;;;;20775;6725;304615;-90
2022/11/11 07:36:40;;;;;;;199.43;9.67;;;8.30;54.10;;;;;;20967;6716;119627;-88
2022/11/11 07:39:15;;;;;;;139.40;8.93;;;8.20;54.30;;;;;;20800;6716;287748;-89
2022/11/11 07:41:51;;;;;;;108.73;7.10;;;8.30;53.90;;;;;;20788;6716;120073;-88
2022/11/11 07:44:26;;;;;;;370.57;12.97;;;8.20;54.30;;;;;;20945;6771;119506;-91
2022/11/11 07:47:09;;;;;;;482.23;15.33;;;8.00;55.00;;;;;;21011;6714;117413;-91
2022/11/11 07:49:40;;;;;;;281.10;12.15;;;7.90;55.80;;;;;;20759;6707;331492;-91
2022/11/11 07:52:17;;;;;;;328.37;13.07;;;8.00;55.40;;;;;;20936;6700;128014;-88
2022/11/11 07:54:54;;;;;;;409.27;14.77;;;8.10;55.70;;;;;;20951;6717;117587;-88
2022/11/11 07:57:40;;;;;;;;;;;;;;;;;;;;;
2022/11/11 08:00:06;;;;;;;460.27;15.47;;;8.20;57.10;;;;;;20884;6717;117416;-89
2022/11/11 08:02:41;;;;;;;280.93;10.97;;;8.20;56.40;;;;;;20876;6714;122613;-88
2022/11/11 08:05:17;;;;;;;246.43;9.63;;;8.10;56.90;;;;;;20891;6723;118034;-89
2022/11/11 08:07:57;;;;;;;114.93;6.93;;;8.00;57.60;;;;;;20952;6715;120541;-89
2022/11/11 08:10:29;;;;;;;95.37;6.43;;;8.00;58.20;;;;;;20881;6715;146271;-90
2022/11/11 08:16:02;;;;;;;82.50;7.03;;;8.20;58.10;;;;;;20758;6717;288981;-88
2022/11/11 08:18:47;;;;;;;103.22;7.53;;;8.80;57.00;;;;;;20780;6701;307459;-87
2022/11/11 08:21:13;;;;;;;95.80;6.83;;;9.20;55.90;;;;;;20826;6771;120710;-89
2022/11/11 08:23:50;;;;;;;97.03;6.90;;;9.20;56.10;;;;;;20817;6706;319358;-89
2022/11/11 08:26:25;;;;;;;155.17;7.50;;;9.40;55.80;;;;;;20965;6699;118542;-87
2022/11/11 08:29:01;;;;;;;119.97;7.80;;;9.40;56.00;;;;;;20806;6755;276091;-89
2022/11/11 08:31:41;;;;;;;68.40;6.10;;;9.50;55.70;;;;;;20834;6714;117500;-92
2022/11/11 08:34:13;;;;;;;37.47;5.73;;;9.50;56.00;;;;;;20996;6714;117481;-89
2022/11/11 08:36:50;;;;;;;113.23;6.63;;;9.40;56.60;;;;;;21083;6701;117016;-89
2022/11/11 08:39:35;;;;;;;63.57;6.33;;;9.20;57.20;;;;;;21085;6701;113883;-89
2022/11/11 08:42:01;;;;;;;183.23;9.43;;;9.20;57.80;;;;;;20805;6729;305183;-89
2022/11/11 08:44:50;;;;;;;;;;;;;;;;;;;;;
2022/11/11 08:47:25;;;;;;;268.77;11.10;;;9.50;56.90;;;;;;21007;6716;116648;-89
2022/11/11 08:49:51;;;;;;;374.47;13.20;;;9.40;57.40;;;;;;20952;6773;117149;-89
2022/11/11 08:52:27;;;;;;;126.43;8.43;;;9.30;57.90;;;;;;20959;6716;117424;-87
2022/11/11 08:55:02;;;;;;;55.83;7.43;;;9.20;58.10;;;;;;20791;6708;281538;-88
2022/11/11 08:57:38;;;;;;;62.33;8.05;;;9.40;57.30;;;;;;20778;6708;305554;-86
2022/11/11 09:00:14;;;;;;;55.40;7.10;;;9.90;56.70;;;;;;20699;6708;294669;-88
2022/11/11 09:02:51;;;;;;;10.13;4.63;;;10.20;55.10;;;;;;20972;6711;118895;-88
2022/11/11 09:05:26;;;;;;;13.53;5.60;;;10.20;55.30;;;;;;20718;6767;306106;-89
2022/11/11 09:08:05;;;;;;;6.20;5.80;;;10.30;54.40;;;;;;20789;6715;306919;-89
2022/11/11 09:10:38;;;;;;;6.47;4.87;;;10.50;54.10;;;;;;20808;6730;117745;-90
2022/11/11 09:13:17;;;;;;;4.60;4.30;;;10.40;54.60;;;;;;20885;6788;118350;-87
2022/11/11 09:15:56;;;;;;;4.70;4.40;;;10.10;55.50;;;;;;20947;6721;117183;-86
2022/11/11 09:18:41;;;;;;;5.50;5.10;;;9.90;57.30;;;;;;20674;6736;281505;-86
2022/11/11 09:21:07;;;;;;;5.50;5.10;;;10.10;56.20;;;;;;20541;6746;307973;-86
2022/11/11 09:23:42;;;;;;;5.03;4.73;;;10.50;55.90;;;;;;20721;6730;276710;-86
2022/11/11 09:26:27;;;;;;;4.73;4.40;;;10.90;55.50;;;;;;20670;6740;281659;-86
2022/11/11 09:28:54;;;;;;;4.90;4.50;;;11.20;55.20;;;;;;20674;6742;336355;-86
2022/11/11 09:31:31;;;;;;;5.40;4.30;;;11.50;54.80;;;;;;20711;6736;117480;-85
2022/11/11 09:34:12;;;;;;;4.80;4.40;;;11.40;55.10;;;;;;20946;6715;116971;-89
2022/11/11 09:36:49;;;;;;;5.10;4.73;;;11.20;55.90;;;;;;20708;6715;306436;-87
2022/11/11 09:39:23;;;;;;;4.40;4.20;;;11.30;56.10;;;;;;20931;6731;117410;-87
2022/11/11 09:42:16;;;;;;;4.10;3.80;;;11.40;56.40;;;;;;20745;6786;117879;-87
2022/11/11 09:44:58;;;;;;;4.83;4.47;;;11.40;57.10;;;;;;20883;6741;116494;-88
2022/11/11 09:47:50;;;;;;;5.70;5.30;;;11.30;57.70;;;;;;20713;6730;307185;-87
2022/11/11 09:50:27;;;;;;;6.00;4.93;;;11.70;57.50;;;;;;20188;6788;125523;-87
2022/11/11 09:53:28;;;;;;;4.97;4.67;;;11.90;57.50;;;;;;21051;6698;116038;-87
2022/11/11 09:56:01;;;;;;;6.20;4.23;;;11.90;57.70;;;;;;21059;6696;117693;-87
2022/11/11 09:58:46;;;;;;;4.73;4.33;;;11.90;57.90;;;;;;20970;6709;117275;-88
2022/11/11 10:01:25;;;;;;;4.90;4.50;;;12.00;58.30;;;;;;20613;6767;309636;-87
2022/11/11 10:04:26;;;;;;;5.20;4.70;;;12.40;57.00;;;;;;20805;6696;304495;-87
2022/11/11 10:07:03;;;;;;;4.13;3.93;;;12.90;54.90;;;;;;20966;6715;118141;-86
2022/11/11 10:09:40;;;;;;;5.28;4.78;;;13.00;55.20;;;;;;20738;6711;336648;-86
2022/11/11 10:12:17;;;;;;;4.40;4.10;;;13.20;54.70;;;;;;20777;6711;284678;-86
2022/11/11 10:14:54;;;;;;;3.77;3.57;;;13.50;53.50;;;;;;20979;6715;117052;-86
2022/11/11 10:18:01;;;;;;;3.78;3.50;;;13.50;54.10;;;;;;20777;6711;299592;-87
2022/11/11 10:20:37;;;;;;;3.57;3.37;;;13.60;52.90;;;;;;20102;6844;120547;-86
2022/11/11 10:23:16;;;;;;;5.10;3.30;;;13.60;53.50;;;;;;20994;6711;117432;-87
2022/11/11 10:25:55;;;;;;;4.10;3.70;;;13.50;54.10;;;;;;21047;6694;117440;-87
2022/11/11 10:28:34;;;;;;;3.83;3.50;;;13.40;54.50;;;;;;20923;6726;119067;-87
2022/11/11 10:31:17;;;;;;;3.80;3.60;;;13.30;54.80;;;;;;20866;6714;116455;-87
2022/11/11 10:33:57;;;;;;;4.20;3.43;;;13.20;54.90;;;;;;20941;6726;118580;-87
2022/11/11 10:36:42;;;;;;;;;;;;;;;;;;;;;
2022/11/11 10:39:08;;;;;;;4.22;3.90;;;13.10;55.30;;;;;;20726;6714;310055;-87
2022/11/11 10:41:45;;;;;;;5.77;3.80;;;13.30;54.30;;;;;;20867;6715;117842;-86
2022/11/11 10:44:35;;;;;;;4.28;3.97;;;13.50;54.50;;;;;;20818;6696;338050;-87
2022/11/11 10:47:14;;;;;;;4.70;4.30;;;13.70;53.60;;;;;;20983;6711;117467;-87
2022/11/11 10:49:53;;;;;;;4.22;3.83;;;13.70;54.00;;;;;;20774;6700;307096;-87
2022/11/11 10:52:38;;;;;;;3.80;3.60;;;13.90;53.40;;;;;;20788;6700;304619;-87
2022/11/11 10:55:24;;;;;;;4.17;3.67;;;14.20;52.60;;;;;;20811;6700;278618;-88
2022/11/11 10:58:03;;;;;;;4.00;3.63;;;14.50;51.50;;;;;;20916;6718;116987;-87
2022/11/11 11:00:38;;;;;;;5.90;3.70;;;14.50;52.20;;;;;;20198;6821;118907;-86
2022/11/11 11:03:24;;;;;;;3.60;3.40;;;14.30;53.10;;;;;;20991;6712;116979;-86
2022/11/11 11:06:02;;;;;;;4.07;3.77;;;14.10;53.60;;;;;;20992;6712;119670;-88
2022/11/11 11:08:38;;;;;;;4.07;3.87;;;14.00;54.10;;;;;;20856;6731;117574;-89
2022/11/11 11:11:23;;;;;;;4.60;3.80;;;13.90;54.20;;;;;;20606;6729;307670;-87
2022/11/11 11:14:03;;;;;;;3.83;3.60;;;14.20;53.20;;;;;;20947;6727;120063;-87
2022/11/11 11:16:39;;;;;;;4.70;3.70;;;14.30;53.60;;;;;;20815;6787;119006;-86
2022/11/11 11:19:24;;;;;;;3.07;2.83;;;14.20;53.90;;;;;;20973;6727;116356;-89
2022/11/11 11:22:00;;;;;;;2.90;2.80;;;14.20;54.30;;;;;;20977;6715;116922;-87
2022/11/11 11:24:39;;;;;;;3.83;3.53;;;14.20;54.50;;;;;;20720;6727;276613;-88
2022/11/11 11:27:14;;;;;;;4.00;3.70;;;14.40;52.50;;;;;;21034;6716;117950;-88
2022/11/11 11:29:50;;;;;;;4.10;3.70;;;14.60;52.80;;;;;;20748;6716;338056;-88
2022/11/11 11:32:48;;;;;;;4.60;4.03;;;14.80;51.60;;;;;;20968;6713;117661;-89
2022/11/11 11:35:34;;;;;;;4.10;3.70;;;14.90;52.10;;;;;;20603;6769;338434;-92
2022/11/11 11:38:10;;;;;;;3.40;3.20;;;15.10;51.50;;;;;;20990;6716;117518;-87
2022/11/11 11:40:55;;;;;;;3.80;3.50;;;15.10;52.10;;;;;;20911;6716;118391;-92
2022/11/11 11:43:31;;;;;;;6.20;3.90;;;14.90;52.60;;;;;;21107;6701;116407;-94
2022/11/11 11:46:26;;;;;;;3.70;3.40;;;14.80;53.00;;;;;;20974;6722;121160;-86
2022/11/11 11:49:39;;;;;;;3.50;3.20;;;14.70;53.30;;;;;;21007;6711;117027;-89
2022/11/11 11:52:21;;;;;;;4.50;4.10;;;14.50;53.60;;;;;;20749;6725;305706;-88
2022/11/11 11:55:22;;;;;;;7.32;6.80;;;14.80;51.70;;;;;;20756;6725;330256;-86
2022/11/11 11:58:23;;;;;;;4.43;4.12;;;15.20;50.80;;;;;;20761;6720;323016;-90
2022/11/11 12:01:13;;;;;;;4.17;3.80;;;15.60;50.30;;;;;;20781;6732;118990;-89
2022/11/11 12:04:02;;;;;;;5.63;4.10;;;15.50;51.20;;;;;;20779;6717;290554;-88
2022/11/11 12:06:57;;;;;;;4.47;3.77;;;15.60;50.60;;;;;;20911;6731;117000;-87
2022/11/11 12:09:39;;;;;;;3.90;3.60;;;15.50;51.20;;;;;;20974;6715;115848;-91
2022/11/11 12:12:47;;;;;;;4.10;3.80;;;15.30;52.00;;;;;;20298;6753;304928;-90
2022/11/11 12:15:40;;;;;;;5.50;3.60;;;15.50;50.80;;;;;;21032;6701;116741;-90
2022/11/11 12:18:39;;;;;;;4.20;3.80;;;15.50;51.40;;;;;;20831;6701;301557;-88
2022/11/11 12:21:16;;;;;;;3.37;3.13;;;15.80;50.70;;;;;;20977;6701;116232;-91
2022/11/11 12:23:58;;;;;;;3.87;3.57;;;15.80;51.30;;;;;;21105;6701;115942;-91
2022/11/11 12:26:56;;;;;;;4.20;3.70;;;15.60;51.60;;;;;;20743;6707;306337;-89
2022/11/11 12:29:53;;;;;;;4.07;3.67;;;15.70;50.40;;;;;;20764;6717;309576;-87
2022/11/11 12:33:10;;;;;;;;;;;;;;;;;;;;;
2022/11/11 12:36:02;;;;;;;3.83;3.63;;;16.40;49.10;;;;;;20948;6734;117394;-89
2022/11/11 12:39:05;;;;;;;4.00;3.70;;;16.20;49.90;;;;;;20696;6717;304141;-91
2022/11/11 12:41:47;;;;;;;4.70;4.20;;;16.30;49.10;;;;;;20801;6776;117389;-89
2022/11/11 12:44:23;;;;;;;4.12;3.72;;;16.10;50.10;;;;;;20794;6705;334810;-89
2022/11/11 12:47:40;;;;;;;3.93;3.73;;;16.20;49.40;;;;;;20989;6720;117132;-90
2022/11/11 12:50:29;;;;;;;3.90;3.60;;;16.20;50.10;;;;;;20661;6732;307172;-89
2022/11/11 12:53:30;;;;;;;4.23;3.83;;;16.30;49.90;;;;;;20800;6711;276450;-91
2022/11/11 12:56:22;;;;;;;4.13;3.83;;;16.60;48.70;;;;;;21038;6704;117944;-89
2022/11/11 12:59:05;;;;;;;4.28;3.87;;;16.40;49.60;;;;;;20678;6778;306482;-89
2022/11/11 13:02:09;;;;;;;4.80;4.37;;;16.50;49.10;;;;;;20570;6735;308208;-88
2022/11/11 13:05:08;;;;;;;5.13;4.40;;;16.70;48.60;;;;;;20918;6735;117909;-87
2022/11/11 13:07:49;;;;;;;5.20;4.00;;;16.50;49.40;;;;;;20770;6730;277099;-89
2022/11/11 13:10:38;;;;;;;3.60;3.40;;;16.40;48.60;;;;;;20889;6728;121934;-86
2022/11/11 13:13:40;;;;;;;4.27;3.87;;;16.30;49.60;;;;;;20763;6734;277843;-88
2022/11/11 13:16:10;;;;;;;3.97;3.57;;;16.40;49.30;;;;;;21051;6717;118476;-93
2022/11/11 13:18:58;;;;;;;4.47;4.07;;;16.30;50.10;;;;;;21051;6719;116369;-94
2022/11/11 13:21:50;;;;;;;4.35;4.10;;;16.00;50.60;;;;;;20723;6755;305894;-91
2022/11/11 13:24:35;;;;;;;;;;;;;;;;;;;;;
2022/11/11 13:27:01;;;;;;;3.90;3.70;;;16.50;49.70;;;;;;21010;6733;116313;-93
2022/11/11 13:32:18;;;;;;;4.10;3.80;;;16.10;50.90;;;;;;20429;6717;307359;-93
2022/11/11 13:34:54;;;;;;;4.23;3.93;;;16.20;50.60;;;;;;21049;6758;116473;-89
2022/11/11 13:37:32;;;;;;;3.43;3.23;;;16.10;50.90;;;;;;20954;6773;120738;-88
2022/11/11 13:40:16;;;;;;;4.50;3.10;;;15.90;51.60;;;;;;20880;6749;117200;-89
2022/11/11 13:42:44;;;;;;;4.10;3.80;;;15.70;51.90;;;;;;20626;6807;328859;-88
2022/11/11 13:45:36;;;;;;;;;;;;;;;;;;;;;
2022/11/11 13:48:02;;;;;;;4.07;3.77;;;16.20;50.30;;;;;;20653;6722;304836;-88
2022/11/11 13:50:46;;;;;;;3.83;3.43;;;16.50;50.00;;;;;;20911;6712;116916;-87
2022/11/11 13:53:22;;;;;;;3.95;3.67;;;16.40;50.50;;;;;;20840;6700;275102;-88
2022/11/11 13:55:57;;;;;;;3.90;3.60;;;16.50;50.10;;;;;;20815;6697;305446;-86
2022/11/11 13:58:24;;;;;;;3.10;3.00;;;16.60;49.50;;;;;;21019;6698;117449;-90
2022/11/11 14:01:02;;;;;;;3.23;3.03;;;16.50;50.00;;;;;;20904;6698;118582;-89
2022/11/11 14:03:44;;;;;;;3.37;3.17;;;16.20;50.60;;;;;;20724;6730;275932;-91
2022/11/11 14:06:26;;;;;;;3.40;3.20;;;16.30;49.70;;;;;;20767;6714;306039;-87
2022/11/11 14:09:02;;;;;;;3.20;3.00;;;16.50;49.10;;;;;;20770;6713;308537;-89
2022/11/11 14:11:38;;;;;;;3.63;3.33;;;16.80;49.00;;;;;;20822;6712;117523;-91
2022/11/11 14:14:36;;;;;;;3.50;3.30;;;16.60;49.60;;;;;;20943;6714;118315;-91
2022/11/11 14:17:12;;;;;;;4.60;4.20;;;16.30;50.40;;;;;;20764;6712;305130;-91
2022/11/11 14:19:57;;;;;;;3.83;3.30;;;16.40;50.10;;;;;;20753;6714;281737;-88
2022/11/11 14:22:27;;;;;;;4.33;3.60;;;16.60;49.70;;;;;;20984;6712;122310;-88
2022/11/11 14:25:10;;;;;;;3.70;3.40;;;16.50;50.20;;;;;;20901;6787;117151;-87
2022/11/11 14:27:49;;;;;;;3.63;3.33;;;16.20;50.80;;;;;;20685;6790;306914;-86
2022/11/11 14:30:37;;;;;;;4.10;3.60;;;16.30;50.50;;;;;;20633;6732;307817;-87
2022/11/11 14:33:26;;;;;;;3.90;3.50;;;16.50;50.20;;;;;;21041;6697;117091;-87
2022/11/11 14:36:05;;;;;;;4.00;3.70;;;16.30;50.60;;;;;;20754;6713;276582;-91
2022/11/11 14:38:42;;;;;;;4.22;3.60;;;16.40;50.20;;;;;;20758;6712;334071;-86
2022/11/11 14:41:40;;;;;;;3.78;3.45;;;16.60;50.20;;;;;;20638;6727;320157;-90
2022/11/11 14:44:29;;;;;;;3.43;3.23;;;16.70;49.50;;;;;;21030;6719;117382;-93
2022/11/11 14:47:10;;;;;;;4.73;3.60;;;16.40;50.30;;;;;;21040;6724;119188;-91
2022/11/11 14:49:46;;;;;;;4.57;3.93;;;16.00;51.10;;;;;;20971;6734;123055;-86
2022/11/11 14:52:25;;;;;;;6.67;4.80;;;15.70;51.70;;;;;;21043;6721;117285;-89
2022/11/11 14:55:10;;;;;;;;;;;;;;;;;;;;;
2022/11/11 14:57:46;;;;;;;5.27;4.67;;;15.20;53.00;;;;;;20735;6777;117246;-86
2022/11/11 15:00:35;;;;;;;4.67;4.30;;;15.00;52.80;;;;;;20699;6715;307681;-89
2022/11/11 15:03:00;;;;;;;5.00;4.67;;;15.20;51.90;;;;;;20951;6719;121558;-88